createdAt,value
2022-09-15T00:00:28.663Z,0.73
2022-09-15T00:02:55.283Z,1.30
2022-09-15T00:05:21.773Z,0.82
2022-09-15T00:07:48.396Z,1.45
2022-09-15T00:10:15.120Z,2.20
2022-09-15T00:12:41.588Z,2.58
2022-09-15T00:15:12.442Z,1.73
2022-09-15T00:17:38.896Z,1.25
2022-09-15T00:20:07.442Z,1.40
2022-09-15T00:22:34.043Z,1.20
2022-09-15T00:25:00.536Z,1.40
2022-09-15T00:27:27.003Z,3.22
2022-09-15T00:29:53.492Z,2.08
2022-09-15T00:32:19.998Z,1.17
2022-09-15T00:34:46.457Z,1.98
2022-09-15T00:37:13.199Z,1.33
2022-09-15T00:39:39.701Z,1.30
2022-09-15T00:42:06.345Z,1.95
2022-09-15T00:44:35.526Z,1.75
2022-09-15T00:47:18.706Z,1.10
2022-09-15T00:52:25.360Z,1.13
2022-09-15T00:55:01.321Z,1.13
2022-09-15T00:57:34.407Z,1.40
2022-09-15T01:00:04.320Z,2.08
2022-09-15T01:02:35.804Z,1.17
2022-09-15T01:05:05.874Z,0.90
2022-09-15T01:07:39.782Z,2.25
2022-09-15T01:10:11.705Z,2.45
2022-09-15T01:12:40.375Z,1.60
2022-09-15T01:15:07.703Z,1.30
2022-09-15T01:18:03.322Z,1.20
2022-09-15T01:20:38.901Z,1.38
2022-09-15T01:23:38.070Z,2.50
2022-09-15T01:26:13.903Z,2.03
2022-09-15T01:29:24.130Z,1.92
2022-09-15T01:32:40.044Z,1.27
2022-09-15T01:35:31.867Z,1.77
2022-09-15T01:38:02.595Z,1.85
2022-09-15T01:40:35.517Z,2.05
2022-09-15T01:43:05.228Z,1.70
2022-09-15T01:45:34.212Z,1.80
2022-09-15T01:48:03.686Z,2.70
2022-09-15T01:50:38.871Z,3.35
2022-09-15T01:53:13.362Z,1.77
2022-09-15T01:55:44.734Z,1.75
2022-09-15T01:58:11.349Z,1.55
2022-09-15T02:00:43.590Z,2.25
2022-09-15T02:03:44.180Z,1.40
2022-09-15T02:06:18.430Z,2.83
2022-09-15T02:09:10.978Z,1.67
2022-09-15T02:11:45.562Z,1.40
2022-09-15T02:14:21.334Z,1.60
2022-09-15T02:16:52.245Z,1.40
2022-09-15T02:19:42.026Z,2.00
2022-09-15T02:22:17.699Z,1.52
2022-09-15T02:24:56.950Z,1.70
2022-09-15T02:27:28.005Z,1.95
2022-09-15T02:29:59.738Z,1.63
2022-09-15T02:32:28.203Z,1.45
2022-09-15T02:34:58.425Z,1.73
2022-09-15T02:37:26.340Z,1.77
2022-09-15T02:39:59.015Z,1.98
2022-09-15T02:42:31.249Z,1.92
2022-09-15T02:45:00.625Z,1.90
2022-09-15T02:47:32.047Z,1.85
2022-09-15T02:49:58.610Z,2.08
2022-09-15T02:52:26.160Z,2.85
2022-09-15T02:54:53.624Z,2.20
2022-09-15T02:57:20.922Z,1.90
2022-09-15T03:00:06.666Z,1.92
2022-09-15T03:02:33.894Z,1.90
2022-09-15T03:05:00.454Z,1.67
2022-09-15T03:07:28.434Z,2.30
2022-09-15T03:09:55.009Z,1.77
2022-09-15T03:12:21.841Z,1.90
2022-09-15T03:14:48.281Z,1.48
2022-09-15T03:17:15.150Z,2.30
2022-09-15T03:19:41.651Z,1.92
2022-09-15T03:22:09.428Z,2.00
2022-09-15T03:24:37.221Z,1.48
2022-09-15T03:27:04.112Z,1.70
2022-09-15T03:29:31.009Z,2.20
2022-09-15T03:31:57.737Z,2.20
2022-09-15T03:34:24.328Z,3.55
2022-09-15T03:36:50.835Z,2.05
2022-09-15T03:39:17.339Z,2.30
2022-09-15T03:41:43.774Z,2.17
2022-09-15T03:44:10.322Z,1.70
2022-09-15T03:46:36.809Z,2.38
2022-09-15T03:49:03.523Z,2.42
2022-09-15T03:51:30.029Z,3.10
2022-09-15T03:53:56.549Z,2.20
2022-09-15T03:56:26.994Z,3.42
2022-09-15T03:58:53.759Z,1.88
2022-09-15T04:01:21.222Z,2.17
2022-09-15T04:03:51.106Z,1.90
2022-09-15T04:06:19.435Z,1.75
2022-09-15T04:08:46.013Z,1.88
2022-09-15T04:11:13.885Z,1.60
2022-09-15T04:13:43.992Z,1.95
2022-09-15T04:16:13.299Z,1.75
2022-09-15T04:18:40.264Z,2.97
2022-09-15T04:21:08.866Z,1.70
2022-09-15T04:23:36.448Z,1.60
2022-09-15T04:26:07.091Z,2.20
2022-09-15T04:28:36.393Z,2.38
2022-09-15T04:31:14.435Z,2.20
2022-09-15T04:33:42.898Z,1.90
2022-09-15T04:36:12.456Z,2.58
2022-09-15T04:38:39.327Z,1.95
2022-09-15T04:41:06.799Z,2.50
2022-09-15T04:43:33.722Z,3.10
2022-09-15T04:46:00.666Z,1.92
2022-09-15T04:48:28.075Z,2.33
2022-09-15T04:50:54.757Z,1.58
2022-09-15T04:53:21.410Z,1.30
2022-09-15T04:55:48.158Z,1.63
2022-09-15T04:58:14.655Z,1.13
2022-09-15T05:00:45.775Z,1.02
2022-09-15T05:03:13.938Z,1.05
2022-09-15T05:05:41.297Z,2.38
2022-09-15T05:08:08.159Z,0.90
2022-09-15T05:10:35.155Z,2.08
2022-09-15T05:13:01.739Z,0.90
2022-09-15T05:15:28.349Z,1.10
2022-09-15T05:17:54.958Z,1.58
2022-09-15T05:20:21.509Z,1.60
2022-09-15T05:22:48.016Z,2.63
2022-09-15T05:25:14.466Z,3.03
2022-09-15T05:27:41.201Z,3.65
2022-09-15T05:30:35.809Z,3.60
2022-09-15T05:32:54.706Z,3.75
2022-09-15T05:35:21.190Z,3.40
2022-09-15T05:37:47.627Z,3.60
2022-09-15T05:40:15.236Z,3.08
2022-09-15T05:42:41.752Z,3.67
2022-09-15T05:45:08.906Z,3.10
2022-09-15T05:47:35.346Z,4.10
2022-09-15T05:50:01.832Z,5.55
2022-09-15T05:52:28.273Z,5.45
2022-09-15T05:54:58.392Z,4.40
2022-09-15T05:57:25.707Z,3.60
2022-09-15T05:59:52.409Z,3.70
2022-09-15T06:02:19.117Z,3.10
2022-09-15T06:04:45.666Z,3.28
2022-09-15T06:07:12.396Z,2.60
2022-09-15T06:09:39.356Z,2.60
2022-09-15T06:12:06.011Z,2.20
2022-09-15T06:14:32.444Z,2.00
2022-09-15T06:16:58.903Z,3.00
2022-09-15T06:19:25.425Z,4.05
2022-09-15T06:21:52.188Z,3.88
2022-09-15T06:24:18.699Z,2.53
2022-09-15T06:26:45.206Z,2.60
2022-09-15T06:29:12.035Z,1.98
2022-09-15T06:31:38.720Z,2.28
2022-09-15T06:34:05.548Z,1.92
2022-09-15T06:36:32.683Z,1.52
2022-09-15T06:38:59.865Z,1.30
2022-09-15T06:41:38.244Z,1.50
2022-09-15T06:44:18.690Z,1.48
2022-09-15T06:46:45.333Z,1.33
2022-09-15T06:49:12.273Z,2.05
2022-09-15T06:51:38.860Z,2.13
2022-09-15T06:54:06.341Z,1.92
2022-09-15T06:56:37.685Z,1.88
2022-09-15T06:59:05.070Z,2.60
2022-09-15T07:01:32.562Z,3.65
2022-09-15T07:04:01.166Z,2.70
2022-09-15T07:06:29.225Z,2.17
2022-09-15T07:08:56.651Z,1.92
2022-09-15T07:11:23.189Z,1.55
2022-09-15T07:13:50.672Z,1.10
2022-09-15T07:16:18.979Z,1.48
2022-09-15T07:18:46.725Z,3.78
2022-09-15T07:21:19.808Z,6.03
2022-09-15T07:23:47.327Z,5.78
2022-09-15T07:26:25.545Z,5.95
2022-09-15T07:28:55.647Z,7.22
2022-09-15T07:31:25.194Z,6.35
2022-09-15T07:33:52.096Z,5.75
2022-09-15T07:36:19.174Z,4.20
2022-09-15T07:38:48.084Z,5.63
2022-09-15T07:41:20.962Z,5.50
2022-09-15T07:43:49.513Z,5.00
2022-09-15T07:46:17.627Z,5.80
2022-09-15T07:48:48.366Z,6.68
2022-09-15T07:51:15.538Z,5.90
2022-09-15T07:53:43.540Z,5.35
2022-09-15T07:56:10.512Z,4.93
2022-09-15T07:58:37.044Z,6.82
2022-09-15T08:01:05.703Z,4.97
2022-09-15T08:03:33.033Z,5.47
2022-09-15T08:06:03.356Z,3.60
2022-09-15T08:08:30.258Z,3.97
2022-09-15T08:10:58.079Z,6.45
2022-09-15T08:13:25.007Z,5.22
2022-09-15T08:15:52.172Z,5.47
2022-09-15T08:18:18.727Z,6.40
2022-09-15T08:20:45.291Z,4.55
2022-09-15T08:23:11.877Z,4.60
2022-09-15T08:25:39.572Z,4.97
2022-09-15T08:28:06.178Z,4.57
2022-09-15T08:30:32.801Z,4.13
2022-09-15T08:32:59.305Z,4.18
2022-09-15T08:35:25.873Z,3.75
2022-09-15T08:37:55.113Z,3.17
2022-09-15T08:40:32.582Z,3.63
2022-09-15T08:43:06.387Z,2.08
2022-09-15T08:45:43.674Z,2.67
2022-09-15T08:48:15.766Z,2.78
2022-09-15T08:50:47.634Z,2.63
2022-09-15T08:53:20.016Z,2.80
2022-09-15T08:55:52.568Z,2.50
2022-09-15T08:58:25.466Z,2.67
2022-09-15T09:01:16.502Z,3.65
2022-09-15T09:03:58.138Z,3.33
2022-09-15T09:06:49.988Z,2.58
2022-09-15T09:09:40.048Z,2.47
2022-09-15T09:12:32.728Z,4.72
2022-09-15T09:15:25.439Z,3.67
2022-09-15T09:18:30.271Z,2.97
2022-09-15T09:21:15.582Z,3.47
2022-09-15T09:23:54.508Z,3.30
2022-09-15T09:26:21.251Z,3.50
2022-09-15T09:28:55.034Z,4.05
2022-09-15T09:31:23.181Z,4.25
2022-09-15T09:34:06.322Z,4.20
2022-09-15T09:36:33.837Z,5.40
2022-09-15T09:39:02.001Z,5.85
2022-09-15T09:41:35.762Z,4.18
2022-09-15T09:44:12.618Z,4.43
2022-09-15T09:46:39.359Z,4.20
2022-09-15T09:49:26.051Z,4.72
2022-09-15T09:51:55.144Z,5.40
2022-09-15T09:54:28.202Z,4.53
2022-09-15T09:56:57.520Z,4.38
2022-09-15T09:59:40.631Z,5.18
2022-09-15T10:02:20.734Z,6.25
2022-09-15T10:05:07.498Z,5.07
2022-09-15T10:07:40.192Z,5.15
2022-09-15T10:10:18.213Z,5.37
2022-09-15T10:12:44.947Z,4.95
2022-09-15T10:15:25.213Z,5.40
2022-09-15T10:17:53.076Z,4.78
2022-09-15T10:20:28.486Z,3.95
2022-09-15T10:23:25.840Z,4.43
2022-09-15T10:25:59.600Z,5.00
2022-09-15T10:28:27.536Z,6.22
2022-09-15T10:31:13.302Z,6.07
2022-09-15T10:33:47.781Z,10.43
2022-09-15T10:36:22.500Z,5.90
2022-09-15T10:39:00.198Z,5.38
2022-09-15T10:41:42.333Z,4.35
2022-09-15T10:44:30.139Z,4.90
2022-09-15T10:47:19.808Z,5.82
2022-09-15T10:50:12.424Z,4.30
2022-09-15T10:53:03.181Z,5.38
2022-09-15T10:55:52.685Z,4.78
2022-09-15T10:58:25.924Z,4.50
2022-09-15T11:01:12.830Z,4.80
2022-09-15T11:04:00.153Z,3.90
2022-09-15T11:06:42.637Z,4.20
2022-09-15T11:09:15.041Z,3.92
2022-09-15T11:11:50.774Z,4.18
2022-09-15T11:14:35.480Z,4.40
2022-09-15T11:17:33.749Z,4.65
2022-09-15T11:20:25.349Z,3.85
2022-09-15T11:23:25.832Z,4.40
2022-09-15T11:26:16.067Z,3.50
2022-09-15T11:29:17.134Z,3.95
2022-09-15T11:31:47.795Z,3.58
2022-09-15T11:34:29.761Z,4.07
2022-09-15T11:37:17.101Z,3.53
2022-09-15T11:39:53.408Z,3.50
2022-09-15T11:42:25.556Z,3.40
2022-09-15T11:44:53.493Z,3.35
2022-09-15T11:47:42.311Z,2.30
2022-09-15T11:50:20.623Z,3.42
2022-09-15T11:52:58.109Z,3.88
2022-09-15T11:55:33.579Z,2.90
2022-09-15T11:58:09.298Z,3.05
2022-09-15T12:00:43.245Z,2.80
2022-09-15T12:03:31.466Z,3.72
2022-09-15T12:06:07.436Z,2.22
2022-09-15T12:08:54.579Z,2.47
2022-09-15T12:11:25.847Z,2.35
2022-09-15T12:13:54.479Z,2.35
2022-09-15T12:16:21.938Z,2.28
2022-09-15T12:19:10.260Z,2.10
2022-09-15T12:22:00.747Z,2.50
2022-09-15T12:25:04.434Z,2.85
2022-09-15T12:27:31.081Z,2.35
2022-09-15T12:30:00.319Z,2.70
2022-09-15T12:32:35.060Z,2.45
2022-09-15T12:35:19.958Z,2.58
2022-09-15T12:37:49.023Z,3.05
2022-09-15T12:40:25.166Z,2.30
2022-09-15T12:42:52.064Z,2.50
2022-09-15T12:45:30.824Z,1.52
2022-09-15T12:48:04.144Z,2.10
2022-09-15T12:53:01.978Z,2.92
2022-09-15T12:55:37.548Z,1.98
2022-09-15T12:58:10.293Z,2.10
2022-09-15T13:00:54.783Z,4.50
2022-09-15T13:06:21.778Z,1.88
2022-09-15T13:09:01.479Z,1.58
2022-09-15T13:11:37.537Z,2.00
2022-09-15T13:14:04.271Z,2.67
2022-09-15T13:16:39.992Z,1.90
2022-09-15T13:19:42.318Z,2.05
2022-09-15T13:22:11.457Z,1.98
2022-09-15T13:25:01.679Z,3.92
2022-09-15T13:27:51.983Z,1.67
2022-09-15T13:30:21.414Z,1.48
2022-09-15T13:33:21.039Z,1.85
2022-09-15T13:35:59.694Z,1.35
2022-09-15T13:38:31.845Z,1.63
2022-09-15T13:41:23.595Z,1.47
2022-09-15T13:44:12.550Z,1.40
2022-09-15T13:46:53.627Z,2.05
2022-09-15T13:49:45.004Z,1.48
2022-09-15T13:52:22.181Z,1.90
2022-09-15T13:55:24.060Z,2.40
2022-09-15T14:01:07.443Z,3.30
2022-09-15T14:06:11.927Z,1.38
2022-09-15T14:08:40.534Z,0.82
2022-09-15T14:11:11.989Z,1.40
2022-09-15T14:13:43.497Z,2.13
2022-09-15T14:16:28.485Z,2.42
2022-09-15T14:18:58.324Z,2.47
2022-09-15T14:21:27.512Z,1.50
2022-09-15T14:23:57.027Z,1.40
2022-09-15T14:26:26.718Z,1.42
2022-09-15T14:28:59.326Z,1.58
2022-09-15T14:31:38.554Z,1.50
2022-09-15T14:34:09.744Z,1.35
2022-09-15T14:36:36.329Z,1.33
2022-09-15T14:39:17.845Z,1.25
2022-09-15T14:41:45.311Z,1.60
2022-09-15T14:47:13.242Z,1.95
2022-09-15T14:49:39.875Z,1.48
2022-09-15T14:52:22.667Z,1.10
2022-09-15T14:54:50.383Z,1.37
2022-09-15T14:57:20.703Z,1.48
2022-09-15T14:59:54.086Z,1.73
2022-09-15T15:05:14.437Z,1.30
2022-09-15T15:07:42.236Z,3.60
2022-09-15T15:10:17.747Z,1.52
2022-09-15T15:12:48.365Z,1.40
2022-09-15T15:15:16.345Z,1.15
2022-09-15T15:17:49.730Z,2.55
2022-09-15T15:22:44.611Z,1.40
2022-09-15T15:25:24.534Z,1.60
2022-09-15T15:27:56.628Z,1.55
2022-09-15T15:30:33.507Z,1.73
2022-09-15T15:33:01.483Z,1.80
2022-09-15T15:35:29.252Z,1.40
2022-09-15T15:38:28.142Z,1.65
2022-09-15T15:41:03.030Z,1.42
2022-09-15T15:43:29.895Z,1.40
2022-09-15T15:46:00.949Z,1.42
2022-09-15T15:48:35.233Z,1.58
2022-09-15T15:51:05.023Z,1.08
2022-09-15T15:53:31.580Z,0.98
2022-09-15T15:55:59.654Z,1.10
2022-09-15T15:58:26.334Z,1.20
2022-09-15T16:00:56.293Z,1.52
2022-09-15T16:03:23.991Z,1.38
2022-09-15T16:05:58.160Z,1.52
2022-09-15T16:08:30.040Z,1.58
2022-09-15T16:10:57.661Z,1.70
2022-09-15T16:13:25.735Z,1.30
2022-09-15T16:15:53.853Z,1.23
2022-09-15T16:18:21.413Z,1.67
2022-09-15T16:20:48.246Z,1.25
2022-09-15T16:23:17.453Z,1.25
2022-09-15T16:26:07.619Z,1.05
2022-09-15T16:28:34.303Z,1.42
2022-09-15T16:31:00.971Z,0.80
2022-09-15T16:33:27.576Z,1.02
2022-09-15T16:36:03.606Z,1.20
2022-09-15T16:38:30.171Z,1.88
2022-09-15T16:40:56.788Z,1.83
2022-09-15T16:43:23.353Z,1.52
2022-09-15T16:45:51.354Z,1.23
2022-09-15T16:48:18.066Z,2.53
2022-09-15T16:50:56.074Z,1.67
2022-09-15T16:53:33.618Z,1.55
2022-09-15T16:56:00.465Z,1.48
2022-09-15T16:58:27.679Z,1.25
2022-09-15T17:00:54.375Z,1.10
2022-09-15T17:03:23.815Z,1.38
2022-09-15T17:05:52.604Z,1.10
2022-09-15T17:08:22.068Z,1.52
2022-09-15T17:10:49.787Z,0.98
2022-09-15T17:13:19.259Z,1.42
2022-09-15T17:15:46.837Z,1.63
2022-09-15T17:18:15.517Z,1.20
2022-09-15T17:20:47.089Z,0.90
2022-09-15T17:23:27.814Z,0.90
2022-09-15T17:25:58.317Z,1.33
2022-09-15T17:28:28.861Z,1.15
2022-09-15T17:31:25.802Z,0.80
2022-09-15T17:33:53.028Z,0.88
2022-09-15T17:36:19.878Z,1.25
2022-09-15T17:38:48.705Z,1.10
2022-09-15T17:41:17.339Z,1.70
2022-09-15T17:43:44.159Z,1.17
2022-09-15T17:46:11.106Z,1.25
2022-09-15T17:48:38.994Z,1.38
2022-09-15T17:51:07.153Z,1.17
2022-09-15T17:53:34.184Z,1.10
2022-09-15T17:56:01.008Z,0.93
2022-09-15T17:58:29.877Z,0.95
2022-09-15T18:00:57.224Z,1.00
2022-09-15T18:03:35.641Z,1.10
2022-09-15T18:06:05.257Z,1.10
2022-09-15T18:08:33.117Z,1.98
2022-09-15T18:11:00.981Z,1.40
2022-09-15T18:13:29.836Z,1.40
2022-09-15T18:15:57.176Z,1.30
2022-09-15T18:18:26.166Z,1.10
2022-09-15T18:20:55.151Z,1.33
2022-09-15T18:23:23.824Z,1.20
2022-09-15T18:25:51.137Z,1.20
2022-09-15T18:28:19.127Z,1.08
2022-09-15T18:30:48.547Z,1.20
2022-09-15T18:33:18.218Z,1.50
2022-09-15T18:35:45.459Z,1.17
2022-09-15T18:38:13.590Z,1.00
2022-09-15T18:40:45.199Z,1.20
2022-09-15T18:43:12.010Z,1.23
2022-09-15T18:45:40.254Z,1.15
2022-09-15T18:48:10.505Z,0.85
2022-09-15T18:50:40.438Z,1.30
2022-09-15T18:53:06.988Z,1.00
2022-09-15T18:55:33.585Z,1.20
2022-09-15T18:58:01.091Z,1.15
2022-09-15T19:00:28.801Z,0.98
2022-09-15T19:03:00.466Z,1.13
2022-09-15T19:05:27.825Z,0.90
2022-09-15T19:07:55.426Z,1.23
2022-09-15T19:10:23.113Z,1.23
2022-09-15T19:12:49.857Z,1.10
2022-09-15T19:15:16.410Z,1.30
2022-09-15T19:17:43.832Z,1.00
2022-09-15T19:20:14.692Z,1.20
2022-09-15T19:22:42.112Z,1.20
2022-09-15T19:25:10.300Z,0.93
2022-09-15T19:27:39.839Z,1.10
2022-09-15T19:30:09.905Z,1.13
2022-09-15T19:32:37.670Z,0.95
2022-09-15T19:35:04.755Z,1.67
2022-09-15T19:37:31.210Z,0.80
2022-09-15T19:39:57.716Z,1.23
2022-09-15T19:42:24.272Z,0.80
2022-09-15T19:44:54.278Z,2.00
2022-09-15T19:47:20.796Z,2.13
2022-09-15T19:49:47.506Z,2.65
2022-09-15T19:52:14.028Z,1.80
2022-09-15T19:54:40.504Z,1.33
2022-09-15T19:57:07.022Z,1.40
2022-09-15T19:59:33.784Z,2.08
2022-09-15T20:02:00.976Z,1.30
2022-09-15T20:04:28.496Z,1.40
2022-09-15T20:06:55.113Z,1.30
2022-09-15T20:09:22.440Z,1.55
2022-09-15T20:11:49.151Z,1.08
2022-09-15T20:14:15.975Z,1.40
2022-09-15T20:16:42.615Z,1.10
2022-09-15T20:19:09.448Z,1.30
2022-09-15T20:21:52.752Z,2.95
2022-09-15T20:24:20.678Z,1.88
2022-09-15T20:26:47.626Z,1.75
2022-09-15T20:29:14.386Z,1.10
2022-09-15T20:31:41.564Z,1.20
2022-09-15T20:34:08.334Z,1.35
2022-09-15T20:36:37.531Z,1.70
2022-09-15T20:39:07.805Z,2.13
2022-09-15T20:41:34.749Z,2.28
2022-09-15T20:44:01.697Z,1.80
2022-09-15T20:46:31.472Z,2.03
2022-09-15T20:48:58.088Z,3.47
2022-09-15T20:51:27.893Z,3.40
2022-09-15T20:53:56.191Z,2.22
2022-09-15T20:56:25.573Z,2.75
2022-09-15T20:58:58.409Z,1.60
2022-09-15T21:01:32.320Z,1.63
2022-09-15T21:03:58.914Z,1.63
2022-09-15T21:06:27.426Z,1.10
2022-09-15T21:08:56.089Z,1.63
2022-09-15T21:11:23.976Z,2.90
2022-09-15T21:13:50.586Z,1.73
2022-09-15T21:16:20.597Z,1.42
2022-09-15T21:18:48.844Z,1.40
2022-09-15T21:21:21.245Z,0.80
2022-09-15T21:23:50.449Z,1.63
2022-09-15T21:26:22.518Z,1.50
2022-09-15T21:28:49.839Z,1.10
2022-09-15T21:31:22.049Z,0.90
2022-09-15T21:33:51.231Z,0.90
2022-09-15T21:36:24.480Z,0.80
2022-09-15T21:38:52.861Z,1.23
2022-09-15T21:41:21.944Z,0.90
2022-09-15T21:43:49.664Z,1.10
2022-09-15T21:46:19.005Z,1.08
2022-09-15T21:48:48.645Z,0.80
2022-09-15T21:51:23.525Z,1.10
2022-09-15T21:53:53.406Z,0.93
2022-09-15T21:56:20.567Z,0.98
2022-09-15T21:58:47.039Z,0.82
2022-09-15T22:01:20.674Z,1.00
2022-09-15T22:03:56.397Z,0.82
2022-09-15T22:06:30.186Z,0.80
2022-09-15T22:09:00.511Z,0.70
2022-09-15T22:11:27.248Z,1.05
2022-09-15T22:13:53.849Z,0.80
2022-09-15T22:16:22.789Z,2.25
2022-09-15T22:18:49.833Z,0.70
2022-09-15T22:21:20.126Z,1.08
2022-09-15T22:23:48.495Z,0.88
2022-09-15T22:26:28.141Z,0.98
2022-09-15T22:28:55.339Z,1.13
2022-09-15T22:31:23.408Z,0.70
2022-09-15T22:33:50.170Z,0.77
2022-09-15T22:36:30.161Z,0.80
2022-09-15T22:39:04.022Z,0.77
2022-09-15T22:41:36.657Z,0.65
2022-09-15T22:44:04.709Z,1.08
2022-09-15T22:46:31.515Z,0.70
2022-09-15T22:48:58.298Z,0.80
2022-09-15T22:51:25.018Z,0.88
2022-09-15T22:53:57.280Z,0.90
2022-09-15T22:56:25.969Z,0.63
2022-09-15T22:58:52.949Z,0.88
2022-09-15T23:01:22.372Z,0.50
2022-09-15T23:03:53.969Z,0.80
2022-09-15T23:06:21.588Z,0.70
2022-09-15T23:08:53.228Z,0.95
2022-09-15T23:11:20.809Z,0.95
2022-09-15T23:13:47.697Z,1.13
2022-09-15T23:16:14.285Z,1.00
2022-09-15T23:18:40.803Z,1.02
2022-09-15T23:21:10.386Z,0.90
2022-09-15T23:23:39.147Z,0.90
2022-09-15T23:26:07.633Z,0.73
2022-09-15T23:28:34.711Z,1.10
2022-09-15T23:31:01.221Z,0.85
2022-09-15T23:33:29.623Z,0.75
2022-09-15T23:35:59.122Z,0.70
2022-09-15T23:38:25.757Z,0.98
2022-09-15T23:40:52.303Z,0.80
2022-09-15T23:43:18.861Z,0.90
2022-09-15T23:45:46.380Z,0.85
2022-09-15T23:48:13.943Z,1.00
2022-09-15T23:50:41.325Z,1.08
2022-09-15T23:53:08.136Z,1.27
2022-09-15T23:55:35.313Z,0.82
2022-09-15T23:58:02.121Z,0.90
